createdAt,value
2018-08-16T00:00:31.301Z,17.80
2018-08-16T00:03:06.173Z,17.80
2018-08-16T00:05:41.108Z,17.80
2018-08-16T00:08:15.529Z,17.80
2018-08-16T00:10:50.186Z,17.80
2018-08-16T00:13:25.116Z,17.70
2018-08-16T00:15:59.872Z,17.70
2018-08-16T00:18:34.620Z,17.70
2018-08-16T00:21:09.405Z,17.70
2018-08-16T00:23:44.116Z,17.60
2018-08-16T00:26:18.780Z,17.60
2018-08-16T00:28:53.704Z,17.60
2018-08-16T00:31:28.113Z,17.60
2018-08-16T00:34:02.748Z,17.60
2018-08-16T00:36:37.553Z,17.60
2018-08-16T00:39:12.285Z,17.60
2018-08-16T00:41:47.071Z,17.50
2018-08-16T00:44:21.672Z,17.50
2018-08-16T00:46:56.361Z,17.50
2018-08-16T00:49:31.128Z,17.50
2018-08-16T00:52:06.165Z,17.50
2018-08-16T00:54:40.588Z,17.40
2018-08-16T00:57:15.553Z,17.40
2018-08-16T00:59:50.093Z,17.40
2018-08-16T01:02:25.029Z,17.40
2018-08-16T01:04:59.905Z,17.40
2018-08-16T01:07:34.632Z,17.40
2018-08-16T01:10:11.565Z,17.40
2018-08-16T01:12:46.232Z,17.40
2018-08-16T01:15:21.147Z,17.30
2018-08-16T01:17:55.883Z,17.30
2018-08-16T01:20:30.599Z,17.40
2018-08-16T01:23:05.492Z,17.30
2018-08-16T01:25:40.284Z,17.30
2018-08-16T01:28:15.078Z,17.30
2018-08-16T01:30:50.095Z,17.30
2018-08-16T01:33:24.661Z,17.20
2018-08-16T01:35:59.282Z,17.20
2018-08-16T01:38:33.909Z,17.20
2018-08-16T01:41:08.640Z,17.10
2018-08-16T01:43:43.388Z,17.10
2018-08-16T01:46:18.098Z,17.10
2018-08-16T01:48:52.816Z,17.10
2018-08-16T01:51:27.515Z,17.10
2018-08-16T01:54:01.979Z,17.10
2018-08-16T01:56:36.864Z,17.10
2018-08-16T01:59:11.304Z,17.00
2018-08-16T02:01:46.500Z,17.00
2018-08-16T02:04:20.860Z,16.90
2018-08-16T02:06:55.724Z,16.90
2018-08-16T02:09:30.315Z,16.80
2018-08-16T02:12:05.472Z,16.80
2018-08-16T02:14:39.588Z,16.80
2018-08-16T02:17:14.289Z,16.80
2018-08-16T02:19:49.324Z,16.80
2018-08-16T02:22:23.799Z,16.70
2018-08-16T02:24:58.584Z,16.70
2018-08-16T02:27:33.409Z,16.60
2018-08-16T02:30:08.860Z,16.60
2018-08-16T02:32:43.582Z,16.60
2018-08-16T02:35:18.128Z,16.60
2018-08-16T02:37:53.008Z,16.50
2018-08-16T02:40:27.894Z,16.50
2018-08-16T02:43:02.556Z,16.50
2018-08-16T02:45:37.298Z,16.50
2018-08-16T02:48:11.925Z,16.50
2018-08-16T02:50:46.634Z,16.50
2018-08-16T02:53:21.620Z,16.40
2018-08-16T02:55:56.137Z,16.40
2018-08-16T02:58:31.048Z,16.40
2018-08-16T03:01:05.707Z,16.40
2018-08-16T03:03:40.509Z,16.40
2018-08-16T03:06:15.534Z,16.30
2018-08-16T03:08:49.876Z,16.30
2018-08-16T03:11:24.493Z,16.30
2018-08-16T03:13:59.498Z,16.30
2018-08-16T03:16:33.915Z,16.20
2018-08-16T03:19:08.746Z,16.20
2018-08-16T03:21:43.406Z,16.20
2018-08-16T03:24:18.142Z,16.20
2018-08-16T03:26:52.998Z,16.20
2018-08-16T03:29:27.752Z,16.20
2018-08-16T03:32:02.473Z,16.10
2018-08-16T03:34:37.221Z,16.10
2018-08-16T03:37:12.119Z,16.10
2018-08-16T03:39:47.127Z,16.10
2018-08-16T03:42:21.716Z,16.10
2018-08-16T03:44:56.584Z,16.10
2018-08-16T03:47:31.244Z,16.10
2018-08-16T03:50:07.012Z,16.10
2018-08-16T03:52:43.709Z,16.10
2018-08-16T03:55:19.741Z,16.10
2018-08-16T03:57:53.880Z,16.00
2018-08-16T04:00:28.549Z,16.00
2018-08-16T04:03:03.337Z,16.00
2018-08-16T04:05:37.736Z,16.00
2018-08-16T04:08:12.364Z,15.90
2018-08-16T04:10:46.948Z,15.90
2018-08-16T04:13:21.811Z,15.90
2018-08-16T04:15:56.093Z,15.90
2018-08-16T04:18:30.798Z,15.80
2018-08-16T04:21:05.404Z,15.80
2018-08-16T04:23:40.039Z,15.80
2018-08-16T04:26:14.852Z,15.90
2018-08-16T04:28:49.388Z,15.90
2018-08-16T04:31:24.335Z,15.90
2018-08-16T04:33:59.088Z,15.90
2018-08-16T04:36:33.685Z,15.90
2018-08-16T04:39:09.458Z,15.90
2018-08-16T04:41:44.201Z,15.90
2018-08-16T04:44:19.022Z,15.90
2018-08-16T04:46:54.596Z,16.00
2018-08-16T04:49:29.645Z,16.00
2018-08-16T04:52:04.760Z,16.00
2018-08-16T04:54:39.256Z,16.10
2018-08-16T04:57:13.989Z,16.10
2018-08-16T04:59:48.850Z,16.10
2018-08-16T05:02:23.923Z,16.10
2018-08-16T05:04:58.481Z,16.10
2018-08-16T05:07:33.071Z,16.20
2018-08-16T05:10:09.335Z,16.20
2018-08-16T05:12:43.478Z,16.20
2018-08-16T05:15:18.220Z,16.30
2018-08-16T05:17:52.922Z,16.30
2018-08-16T05:20:27.767Z,16.40
2018-08-16T05:23:02.890Z,16.50
2018-08-16T05:25:37.425Z,16.50
2018-08-16T05:28:12.073Z,16.60
2018-08-16T05:30:46.821Z,16.80
2018-08-16T05:33:21.697Z,16.90
2018-08-16T05:35:56.556Z,17.20
2018-08-16T05:38:31.276Z,17.50
2018-08-16T05:41:06.044Z,17.80
2018-08-16T05:43:40.766Z,18.10
2018-08-16T05:46:15.687Z,18.50
2018-08-16T05:48:50.825Z,18.80
2018-08-16T05:51:25.665Z,19.10
2018-08-16T05:54:00.352Z,19.50
2018-08-16T05:56:35.116Z,19.90
2018-08-16T05:59:09.529Z,20.40
2018-08-16T06:01:44.423Z,20.70
2018-08-16T06:04:19.143Z,21.10
2018-08-16T06:06:53.779Z,21.50
2018-08-16T06:09:28.568Z,21.80
2018-08-16T06:12:03.732Z,22.10
2018-08-16T06:14:38.204Z,22.30
2018-08-16T06:17:13.536Z,22.60
2018-08-16T06:19:47.866Z,22.80
2018-08-16T06:22:22.516Z,23.10
2018-08-16T06:24:57.188Z,23.30
2018-08-16T06:27:31.792Z,23.50
2018-08-16T06:30:11.218Z,23.70
2018-08-16T06:32:46.449Z,23.80
2018-08-16T06:35:20.617Z,24.00
2018-08-16T06:37:55.294Z,24.10
2018-08-16T06:40:29.962Z,24.20
2018-08-16T06:43:04.596Z,24.50
2018-08-16T06:45:39.450Z,24.70
2018-08-16T06:48:14.112Z,25.00
2018-08-16T06:50:49.088Z,25.20
2018-08-16T06:53:23.800Z,25.50
2018-08-16T06:55:58.643Z,25.80
2018-08-16T06:58:33.880Z,26.20
2018-08-16T07:01:08.502Z,26.40
2018-08-16T07:03:42.892Z,26.60
2018-08-16T07:06:17.834Z,26.70
2018-08-16T07:08:52.390Z,26.80
2018-08-16T07:11:27.420Z,26.80
2018-08-16T07:14:01.703Z,26.90
2018-08-16T07:16:36.532Z,27.00
2018-08-16T07:19:11.507Z,27.00
2018-08-16T07:21:46.066Z,27.10
2018-08-16T07:24:20.821Z,26.90
2018-08-16T07:26:55.584Z,26.90
2018-08-16T07:29:30.339Z,26.90
2018-08-16T07:32:05.245Z,27.00
2018-08-16T07:34:39.785Z,27.00
2018-08-16T07:37:14.381Z,26.90
2018-08-16T07:39:48.919Z,26.70
2018-08-16T07:42:23.484Z,26.70
2018-08-16T07:44:58.117Z,26.70
2018-08-16T07:47:32.984Z,26.90
2018-08-16T07:50:09.306Z,27.00
2018-08-16T07:52:44.349Z,26.90
2018-08-16T07:55:19.088Z,27.00
2018-08-16T07:57:53.852Z,26.90
2018-08-16T08:00:28.524Z,26.70
2018-08-16T08:03:03.278Z,26.80
2018-08-16T08:05:37.875Z,26.80
2018-08-16T08:08:12.561Z,26.70
2018-08-16T08:10:47.129Z,26.60
2018-08-16T08:13:21.592Z,26.60
2018-08-16T08:15:56.389Z,26.70
2018-08-16T08:18:31.308Z,26.80
2018-08-16T08:21:05.545Z,26.90
2018-08-16T08:23:40.660Z,26.90
2018-08-16T08:26:15.305Z,26.80
2018-08-16T08:28:50.245Z,26.80
2018-08-16T08:31:24.904Z,26.70
2018-08-16T08:33:59.464Z,26.80
2018-08-16T08:36:51.552Z,27.00
2018-08-16T08:39:26.289Z,27.10
2018-08-16T08:42:00.924Z,27.10
2018-08-16T08:44:35.827Z,27.30
2018-08-16T08:47:10.533Z,27.40
2018-08-16T08:49:45.073Z,27.60
2018-08-16T08:52:19.870Z,27.70
2018-08-16T08:55:11.760Z,27.80
2018-08-16T08:58:03.451Z,27.80
2018-08-16T09:00:38.132Z,27.90
2018-08-16T09:03:12.605Z,28.20
2018-08-16T09:05:47.240Z,28.30
2018-08-16T09:08:21.915Z,28.40
2018-08-16T09:11:18.871Z,28.60
2018-08-16T09:14:10.921Z,28.70
2018-08-16T09:16:45.972Z,28.70
2018-08-16T09:19:20.676Z,28.70
2018-08-16T09:21:55.350Z,28.50
2018-08-16T09:24:29.940Z,28.40
2018-08-16T09:27:05.043Z,28.40
2018-08-16T09:30:26.284Z,28.60
2018-08-16T09:33:18.265Z,28.70
2018-08-16T09:35:52.958Z,28.80
2018-08-16T09:38:27.896Z,28.90
2018-08-16T09:41:02.220Z,28.80
2018-08-16T09:43:37.004Z,28.70
2018-08-16T09:47:03.364Z,28.70
2018-08-16T09:49:44.884Z,28.60
2018-08-16T09:52:19.962Z,28.70
2018-08-16T09:54:54.783Z,28.80
2018-08-16T09:57:29.367Z,28.90
2018-08-16T10:00:04.356Z,28.90
2018-08-16T10:02:38.840Z,29.00
2018-08-16T10:05:13.576Z,29.00
2018-08-16T10:07:48.132Z,29.10
2018-08-16T10:10:22.899Z,29.10
2018-08-16T10:12:57.744Z,29.20
2018-08-16T10:15:32.261Z,29.20
2018-08-16T10:18:07.428Z,29.30
2018-08-16T10:20:41.802Z,29.30
2018-08-16T10:23:16.576Z,29.20
2018-08-16T10:25:51.175Z,29.30
2018-08-16T10:28:26.016Z,29.20
2018-08-16T10:31:00.903Z,29.10
2018-08-16T10:33:35.635Z,29.10
2018-08-16T10:36:10.600Z,29.20
2018-08-16T10:38:45.264Z,28.90
2018-08-16T10:41:19.973Z,28.80
2018-08-16T10:43:54.711Z,28.80
2018-08-16T10:46:29.742Z,28.80
2018-08-16T10:49:04.634Z,28.80
2018-08-16T10:51:39.280Z,28.70
2018-08-16T10:54:14.032Z,28.50
2018-08-16T10:56:48.736Z,28.40
2018-08-16T10:59:23.500Z,28.40
2018-08-16T11:01:58.572Z,28.20
2018-08-16T11:04:32.960Z,28.00
2018-08-16T11:07:07.573Z,27.90
2018-08-16T11:09:42.164Z,27.80
2018-08-16T11:12:16.965Z,27.80
2018-08-16T11:14:51.465Z,27.60
2018-08-16T11:17:26.320Z,27.50
2018-08-16T11:20:00.818Z,27.40
2018-08-16T11:22:35.359Z,27.20
2018-08-16T11:25:09.971Z,27.10
2018-08-16T11:27:44.660Z,27.10
2018-08-16T11:30:19.405Z,27.10
2018-08-16T11:32:54.184Z,27.10
2018-08-16T11:35:28.943Z,27.00
2018-08-16T11:38:03.697Z,27.00
2018-08-16T11:40:38.387Z,27.00
2018-08-16T11:43:13.254Z,27.00
2018-08-16T11:45:48.063Z,26.90
2018-08-16T11:48:23.229Z,26.90
2018-08-16T11:50:57.614Z,26.90
2018-08-16T11:53:32.185Z,26.80
2018-08-16T11:56:07.038Z,26.90
2018-08-16T11:58:41.769Z,26.80
2018-08-16T12:01:16.762Z,26.80
2018-08-16T12:03:51.356Z,26.70
2018-08-16T12:06:29.272Z,26.70
2018-08-16T12:09:07.296Z,26.70
2018-08-16T12:11:41.721Z,26.70
2018-08-16T12:14:16.655Z,26.70
2018-08-16T12:16:51.212Z,26.60
2018-08-16T12:19:26.103Z,26.70
2018-08-16T12:22:00.654Z,26.70
2018-08-16T12:24:34.964Z,26.70
2018-08-16T12:27:09.696Z,26.70
2018-08-16T12:29:44.593Z,26.70
2018-08-16T12:32:18.913Z,26.70
2018-08-16T12:34:53.484Z,26.80
2018-08-16T12:37:28.469Z,26.80
2018-08-16T12:40:03.753Z,26.70
2018-08-16T12:42:38.645Z,26.60
2018-08-16T12:45:13.201Z,26.60
2018-08-16T12:47:48.003Z,26.60
2018-08-16T12:50:22.854Z,26.60
2018-08-16T12:52:57.284Z,26.60
2018-08-16T12:55:31.775Z,26.50
2018-08-16T12:58:06.511Z,26.50
2018-08-16T13:00:41.297Z,26.50
2018-08-16T13:03:16.360Z,26.60
2018-08-16T13:05:50.845Z,26.60
2018-08-16T13:08:25.626Z,26.60
2018-08-16T13:11:00.215Z,26.50
2018-08-16T13:13:34.929Z,26.50
2018-08-16T13:16:09.560Z,26.60
2018-08-16T13:18:44.781Z,26.60
2018-08-16T13:21:18.997Z,26.50
2018-08-16T13:23:53.663Z,26.60
2018-08-16T13:26:28.377Z,26.60
2018-08-16T13:29:02.980Z,26.60
2018-08-16T13:31:37.643Z,26.60
2018-08-16T13:34:12.152Z,26.60
2018-08-16T13:36:46.891Z,26.60
2018-08-16T13:39:21.512Z,26.50
2018-08-16T13:41:56.100Z,26.50
2018-08-16T13:44:30.753Z,26.50
2018-08-16T13:47:05.594Z,26.40
2018-08-16T13:49:40.186Z,26.40
2018-08-16T13:52:15.017Z,26.40
2018-08-16T13:54:49.508Z,26.40
2018-08-16T13:57:24.137Z,26.40
2018-08-16T13:59:58.856Z,26.50
2018-08-16T14:02:33.688Z,26.40
2018-08-16T14:05:08.916Z,26.40
2018-08-16T14:07:43.448Z,26.40
2018-08-16T14:10:18.368Z,26.40
2018-08-16T14:12:53.115Z,26.40
2018-08-16T14:15:27.956Z,26.50
2018-08-16T14:18:02.548Z,26.50
2018-08-16T14:20:37.292Z,26.50
2018-08-16T14:23:11.980Z,26.40
2018-08-16T14:25:46.550Z,26.40
2018-08-16T14:28:21.198Z,26.40
2018-08-16T14:30:56.113Z,26.50
2018-08-16T14:33:30.735Z,26.50
2018-08-16T14:36:05.594Z,26.50
2018-08-16T14:38:40.961Z,26.50
2018-08-16T14:41:14.968Z,26.40
2018-08-16T14:43:49.596Z,26.40
2018-08-16T14:46:24.324Z,26.40
2018-08-16T14:48:58.978Z,26.40
2018-08-16T14:51:33.651Z,26.40
2018-08-16T14:54:08.833Z,26.40
2018-08-16T14:56:43.060Z,26.40
2018-08-16T14:59:17.857Z,26.40
2018-08-16T15:01:52.445Z,26.40
2018-08-16T15:04:27.170Z,26.50
2018-08-16T15:07:01.852Z,26.40
2018-08-16T15:09:36.577Z,26.40
2018-08-16T15:12:11.396Z,26.50
2018-08-16T15:14:46.286Z,26.50
2018-08-16T15:17:21.348Z,26.40
2018-08-16T15:19:55.970Z,26.40
2018-08-16T15:22:31.313Z,26.40
2018-08-16T15:25:05.821Z,26.40
2018-08-16T15:27:40.315Z,26.40
2018-08-16T15:30:15.061Z,26.40
2018-08-16T15:32:49.774Z,26.50
2018-08-16T15:35:24.403Z,26.40
2018-08-16T15:37:59.056Z,26.50
2018-08-16T15:40:33.829Z,26.40
2018-08-16T15:43:08.612Z,26.30
2018-08-16T15:45:43.145Z,26.30
2018-08-16T15:48:18.071Z,26.30
2018-08-16T15:50:52.722Z,26.30
2018-08-16T15:53:27.337Z,26.30
2018-08-16T15:56:02.329Z,26.20
2018-08-16T15:58:36.819Z,26.20
2018-08-16T16:01:11.466Z,26.30
2018-08-16T16:03:46.070Z,26.30
2018-08-16T16:06:20.899Z,26.20
2018-08-16T16:08:55.570Z,26.20
2018-08-16T16:11:30.336Z,26.20
2018-08-16T16:14:05.769Z,26.20
2018-08-16T16:16:39.928Z,26.20
2018-08-16T16:19:14.596Z,26.20
2018-08-16T16:21:49.543Z,26.20
2018-08-16T16:24:23.861Z,26.20
2018-08-16T16:26:58.676Z,26.20
2018-08-16T16:29:33.413Z,26.20
2018-08-16T16:32:15.022Z,26.20
2018-08-16T16:34:49.242Z,26.20
2018-08-16T16:37:23.840Z,26.20
2018-08-16T16:39:58.520Z,26.20
2018-08-16T16:42:33.129Z,26.10
2018-08-16T16:45:08.883Z,26.10
2018-08-16T16:47:43.039Z,26.00
2018-08-16T16:50:17.736Z,26.00
2018-08-16T16:52:52.375Z,26.00
2018-08-16T16:55:27.109Z,26.00
2018-08-16T16:58:01.656Z,25.90
2018-08-16T17:00:36.656Z,25.90
2018-08-16T17:03:11.424Z,25.90
2018-08-16T17:05:46.212Z,25.90
2018-08-16T17:08:20.721Z,25.80
2018-08-16T17:10:55.308Z,25.80
2018-08-16T17:13:30.081Z,25.80
2018-08-16T17:16:04.753Z,25.70
2018-08-16T17:18:40.021Z,25.70
2018-08-16T17:21:14.364Z,25.70
2018-08-16T17:23:49.012Z,25.60
2018-08-16T17:26:23.742Z,25.60
2018-08-16T17:28:58.418Z,25.50
2018-08-16T17:31:33.508Z,25.50
2018-08-16T17:34:07.926Z,25.40
2018-08-16T17:36:42.841Z,25.40
2018-08-16T17:39:17.221Z,25.40
2018-08-16T17:41:51.948Z,25.30
2018-08-16T17:44:26.625Z,25.30
2018-08-16T17:47:01.501Z,25.30
2018-08-16T17:49:36.275Z,25.30
2018-08-16T17:52:11.163Z,25.20
2018-08-16T17:54:45.876Z,25.20
2018-08-16T17:57:20.609Z,25.20
2018-08-16T17:59:55.368Z,25.10
2018-08-16T18:02:30.016Z,25.10
2018-08-16T18:05:04.960Z,25.10
2018-08-16T18:07:39.429Z,25.00
2018-08-16T18:10:14.095Z,25.00
2018-08-16T18:12:49.044Z,25.00
2018-08-16T18:15:23.825Z,24.90
2018-08-16T18:17:58.436Z,24.90
2018-08-16T18:20:33.165Z,24.80
2018-08-16T18:23:08.256Z,24.80
2018-08-16T18:25:42.589Z,24.70
2018-08-16T18:28:17.976Z,24.70
2018-08-16T18:30:52.977Z,24.50
2018-08-16T18:33:29.098Z,24.50
2018-08-16T18:36:03.477Z,24.50
2018-08-16T18:38:41.492Z,24.40
2018-08-16T18:41:15.565Z,24.30
2018-08-16T18:43:50.471Z,24.30
2018-08-16T18:46:24.996Z,24.10
2018-08-16T18:48:59.784Z,24.00
2018-08-16T18:51:34.540Z,23.90
2018-08-16T18:54:09.456Z,23.80
2018-08-16T18:56:44.465Z,23.70
2018-08-16T18:59:19.097Z,23.60
2018-08-16T19:01:53.964Z,23.40
2018-08-16T19:04:28.824Z,23.30
2018-08-16T19:07:03.662Z,23.20
2018-08-16T19:09:38.404Z,23.10
2018-08-16T19:12:13.069Z,23.00
2018-08-16T19:14:47.905Z,22.80
2018-08-16T19:17:22.572Z,22.70
2018-08-16T19:19:57.389Z,22.60
2018-08-16T19:22:32.505Z,22.50
2018-08-16T19:25:07.512Z,22.40
2018-08-16T19:27:41.770Z,22.30
2018-08-16T19:30:16.564Z,22.20
2018-08-16T19:32:51.152Z,22.10
2018-08-16T19:35:25.900Z,22.00
2018-08-16T19:38:00.564Z,21.90
2018-08-16T19:40:35.118Z,21.80
2018-08-16T19:43:10.252Z,21.80
2018-08-16T19:45:44.589Z,21.70
2018-08-16T19:48:19.830Z,21.70
2018-08-16T19:50:54.140Z,21.60
2018-08-16T19:53:28.972Z,21.50
2018-08-16T19:56:03.981Z,21.50
2018-08-16T19:58:38.452Z,21.40
2018-08-16T20:01:13.579Z,21.40
2018-08-16T20:03:48.090Z,21.30
2018-08-16T20:06:22.865Z,21.30
2018-08-16T20:08:57.592Z,21.20
2018-08-16T20:11:32.286Z,21.10
2018-08-16T20:14:07.313Z,21.10
2018-08-16T20:16:41.659Z,21.00
2018-08-16T20:19:16.455Z,20.90
2018-08-16T20:21:51.253Z,20.90
2018-08-16T20:24:25.980Z,20.80
2018-08-16T20:27:00.786Z,20.80
2018-08-16T20:29:35.435Z,20.70
2018-08-16T20:32:10.472Z,20.60
2018-08-16T20:34:45.300Z,20.60
2018-08-16T20:37:19.903Z,20.50
2018-08-16T20:39:54.293Z,20.50
2018-08-16T20:42:29.038Z,20.40
2018-08-16T20:45:03.980Z,20.40
2018-08-16T20:47:38.461Z,20.30
2018-08-16T20:50:13.208Z,20.30
2018-08-16T20:52:47.936Z,20.30
2018-08-16T20:55:22.593Z,20.30
2018-08-16T20:57:57.338Z,20.20
2018-08-16T21:00:32.023Z,20.20
2018-08-16T21:03:06.719Z,20.10
2018-08-16T21:05:41.432Z,20.10
2018-08-16T21:08:16.131Z,20.00
2018-08-16T21:10:50.922Z,20.00
2018-08-16T21:13:25.792Z,19.90
2018-08-16T21:16:00.625Z,19.90
2018-08-16T21:18:35.640Z,19.90
2018-08-16T21:21:10.914Z,19.90
2018-08-16T21:23:45.873Z,19.80
2018-08-16T21:26:20.634Z,19.80
2018-08-16T21:28:55.388Z,19.80
2018-08-16T21:31:30.214Z,19.70
2018-08-16T21:34:04.724Z,19.70
2018-08-16T21:36:39.441Z,19.60
2018-08-16T21:39:14.363Z,19.50
2018-08-16T21:41:48.542Z,19.50
2018-08-16T21:44:23.312Z,19.50
2018-08-16T21:46:58.200Z,19.40
2018-08-16T21:49:32.873Z,19.40
2018-08-16T21:52:08.092Z,19.30
2018-08-16T21:54:42.411Z,19.30
2018-08-16T21:57:17.023Z,19.30
2018-08-16T21:59:51.761Z,19.20
2018-08-16T22:02:26.656Z,19.20
2018-08-16T22:05:01.478Z,19.10
2018-08-16T22:08:10.430Z,19.10
2018-08-16T22:10:44.590Z,19.10
2018-08-16T22:13:19.140Z,19.00
2018-08-16T22:15:53.883Z,19.00
2018-08-16T22:18:28.441Z,18.90
2018-08-16T22:21:03.595Z,18.90
2018-08-16T22:23:38.590Z,18.90
2018-08-16T22:26:13.577Z,18.80
2018-08-16T22:28:48.168Z,18.80
2018-08-16T22:31:22.760Z,18.70
2018-08-16T22:33:57.295Z,18.70
2018-08-16T22:36:32.201Z,18.60
2018-08-16T22:39:11.328Z,18.60
2018-08-16T22:41:46.202Z,18.50
2018-08-16T22:44:21.122Z,18.50
2018-08-16T22:46:55.551Z,18.50
2018-08-16T22:49:30.094Z,18.50
2018-08-16T22:52:05.229Z,18.40
2018-08-16T22:54:39.673Z,18.30
2018-08-16T22:57:14.384Z,18.30
2018-08-16T22:59:49.117Z,18.30
2018-08-16T23:02:23.803Z,18.30
2018-08-16T23:04:58.697Z,18.20
2018-08-16T23:07:33.100Z,18.20
2018-08-16T23:10:07.821Z,18.20
2018-08-16T23:12:42.672Z,18.10
2018-08-16T23:15:17.236Z,18.10
2018-08-16T23:17:51.879Z,18.10
2018-08-16T23:20:26.435Z,18.00
2018-08-16T23:23:01.107Z,18.00
2018-08-16T23:25:36.168Z,17.90
2018-08-16T23:28:10.381Z,17.90
2018-08-16T23:30:45.156Z,17.90
2018-08-16T23:33:20.070Z,17.80
2018-08-16T23:35:54.888Z,17.80
2018-08-16T23:38:29.672Z,17.80
2018-08-16T23:41:04.496Z,17.70
2018-08-16T23:43:38.772Z,17.80
2018-08-16T23:46:13.795Z,17.80
2018-08-16T23:48:48.526Z,17.70
2018-08-16T23:51:23.218Z,17.60
2018-08-16T23:53:58.067Z,17.60
2018-08-16T23:56:33.098Z,17.60
2018-08-16T23:59:07.540Z,17.60
